createdAt,value
2022-12-16T00:01:54.962Z,101207.31
2022-12-16T00:04:23.418Z,101206.75
2022-12-16T00:06:51.776Z,101215.97
2022-12-16T00:09:20.497Z,101207.19
2022-12-16T00:11:50.391Z,101216.28
2022-12-16T00:14:19.917Z,101208.53
2022-12-16T00:16:48.213Z,101210.31
2022-12-16T00:19:16.665Z,101200.63
2022-12-16T00:21:44.932Z,101214.41
2022-12-16T00:24:13.366Z,101220.56
2022-12-16T00:26:41.556Z,101216.19
2022-12-16T00:29:11.603Z,101217.19
2022-12-16T00:31:40.005Z,101213.66
2022-12-16T00:34:08.710Z,101220.31
2022-12-16T00:36:36.994Z,101221.88
2022-12-16T00:39:05.426Z,101231.66
2022-12-16T00:41:33.719Z,101222.53
2022-12-16T00:44:02.109Z,101220.78
2022-12-16T00:46:32.014Z,101232.78
2022-12-16T00:49:00.523Z,101223.56
2022-12-16T00:51:28.878Z,101233.22
2022-12-16T00:53:57.225Z,101211.66
2022-12-16T00:56:25.464Z,101239.69
2022-12-16T00:58:53.652Z,101238.09
2022-12-16T01:01:23.428Z,101246.22
2022-12-16T01:03:53.331Z,101249.22
2022-12-16T01:06:23.576Z,101251.66
2022-12-16T01:08:51.982Z,101246.09
2022-12-16T01:11:21.781Z,101231.66
2022-12-16T01:13:52.737Z,101248.56
2022-12-16T01:16:24.105Z,101251.41
2022-12-16T01:18:55.487Z,101258.91
2022-12-16T01:21:24.128Z,101256.25
2022-12-16T01:23:52.426Z,101261.25
2022-12-16T01:26:23.813Z,101256.13
2022-12-16T01:28:52.219Z,101255.13
2022-12-16T01:31:21.976Z,101253.69
2022-12-16T01:33:51.255Z,101269.25
2022-12-16T01:36:21.396Z,101260.78
2022-12-16T01:38:50.803Z,101257.91
2022-12-16T01:41:20.520Z,101264.13
2022-12-16T01:43:49.153Z,101274.38
2022-12-16T01:46:23.350Z,101263.69
2022-12-16T01:48:56.550Z,101264.25
2022-12-16T01:51:31.920Z,101264.78
2022-12-16T01:54:05.601Z,101254.13
2022-12-16T01:56:36.159Z,101250.56
2022-12-16T01:59:04.808Z,101249.91
2022-12-16T02:01:33.310Z,101243.66
2022-12-16T02:04:04.489Z,101249.66
2022-12-16T02:06:34.720Z,101244.56
2022-12-16T02:09:09.149Z,101251.56
2022-12-16T02:11:56.128Z,101254.78
2022-12-16T02:14:58.370Z,101243.91
2022-12-16T02:17:33.470Z,101256.22
2022-12-16T02:20:46.424Z,101249.22
2022-12-16T02:23:42.495Z,101250.25
2022-12-16T02:26:44.800Z,101257.44
2022-12-16T02:29:38.276Z,101260.13
2022-12-16T02:32:16.169Z,101266.34
2022-12-16T02:34:50.705Z,101262.34
2022-12-16T02:37:32.563Z,101259.69
2022-12-16T02:40:02.943Z,101269.44
2022-12-16T02:42:33.538Z,101269.69
2022-12-16T02:45:05.794Z,101275.47
2022-12-16T02:47:35.779Z,101268.34
2022-12-16T02:50:04.092Z,101269.03
2022-12-16T02:52:36.384Z,101271.91
2022-12-16T02:55:10.398Z,101275.69
2022-12-16T02:57:56.412Z,101280.34
2022-12-16T03:00:25.917Z,101281.91
2022-12-16T03:03:02.679Z,101284.13
2022-12-16T03:05:34.579Z,101282.38
2022-12-16T03:08:07.567Z,101273.00
2022-12-16T03:10:40.916Z,101288.13
2022-12-16T03:13:12.482Z,101273.56
2022-12-16T03:15:42.682Z,101283.47
2022-12-16T03:18:16.964Z,101283.25
2022-12-16T03:20:51.021Z,101279.69
2022-12-16T03:23:24.154Z,101275.47
2022-12-16T03:25:57.445Z,101278.69
2022-12-16T03:28:38.350Z,101291.25
2022-12-16T03:31:14.911Z,101272.53
2022-12-16T03:33:51.409Z,101292.22
2022-12-16T03:36:24.067Z,101284.78
2022-12-16T03:38:53.207Z,101270.78
2022-12-16T03:41:24.556Z,101279.22
2022-12-16T03:43:53.814Z,101284.34
2022-12-16T03:46:22.672Z,101284.22
2022-12-16T03:48:53.615Z,101276.75
2022-12-16T03:51:22.112Z,101282.56
2022-12-16T03:53:50.549Z,101284.13
2022-12-16T03:56:18.789Z,101293.69
2022-12-16T03:58:47.251Z,101293.91
2022-12-16T04:01:16.282Z,101294.56
2022-12-16T04:03:44.542Z,101292.78
2022-12-16T04:06:19.066Z,101299.13
2022-12-16T04:08:47.642Z,101299.47
2022-12-16T04:11:34.288Z,101311.91
2022-12-16T04:14:20.221Z,101312.78
2022-12-16T04:17:06.272Z,101305.50
2022-12-16T04:19:55.620Z,101300.56
2022-12-16T04:22:45.492Z,101296.13
2022-12-16T04:25:17.951Z,101321.91
2022-12-16T04:27:47.307Z,101307.25
2022-12-16T04:30:22.168Z,101313.50
2022-12-16T04:33:12.380Z,101302.38
2022-12-16T04:35:58.376Z,101320.63
2022-12-16T04:38:45.695Z,101326.13
2022-12-16T04:41:31.283Z,101321.91
2022-12-16T04:44:17.675Z,101318.97
2022-12-16T04:47:03.917Z,101331.13
2022-12-16T04:49:54.787Z,101321.91
2022-12-16T04:52:40.121Z,101323.16
2022-12-16T04:55:28.237Z,101318.25
2022-12-16T04:58:15.714Z,101323.28
2022-12-16T05:01:02.484Z,101322.84
2022-12-16T05:03:48.632Z,101303.25
2022-12-16T05:06:35.957Z,101299.03
2022-12-16T05:09:22.580Z,101322.38
2022-12-16T05:12:24.207Z,101330.53
2022-12-16T05:15:10.223Z,101335.75
2022-12-16T05:17:55.505Z,101337.59
2022-12-16T05:20:41.086Z,101336.25
2022-12-16T05:23:27.009Z,101316.97
2022-12-16T05:26:12.946Z,101339.00
2022-12-16T05:28:59.998Z,101336.16
2022-12-16T05:31:46.035Z,101338.41
2022-12-16T05:34:43.203Z,101352.41
2022-12-16T05:37:29.178Z,101355.72
2022-12-16T05:40:14.735Z,101351.41
2022-12-16T05:43:03.727Z,101351.84
2022-12-16T05:45:51.056Z,101358.41
2022-12-16T05:48:36.433Z,101349.72
2022-12-16T05:51:22.066Z,101347.28
2022-12-16T05:54:07.485Z,101346.22
2022-12-16T05:56:53.603Z,101361.75
2022-12-16T05:59:39.120Z,101361.31
2022-12-16T06:02:26.413Z,101347.28
2022-12-16T06:05:12.321Z,101360.84
2022-12-16T06:07:57.914Z,101365.97
2022-12-16T06:10:43.780Z,101349.06
2022-12-16T06:13:29.503Z,101365.53
2022-12-16T06:16:15.499Z,101363.53
2022-12-16T06:19:03.455Z,101364.69
2022-12-16T06:21:48.970Z,101336.50
2022-12-16T06:24:34.562Z,101361.56
2022-12-16T06:27:20.369Z,101363.97
2022-12-16T06:30:06.053Z,101370.66
2022-12-16T06:32:53.431Z,101376.00
2022-12-16T06:35:41.037Z,101366.78
2022-12-16T06:38:26.425Z,101367.78
2022-12-16T06:41:12.419Z,101368.00
2022-12-16T06:43:58.551Z,101381.59
2022-12-16T06:46:44.171Z,101381.34
2022-12-16T06:49:30.151Z,101379.81
2022-12-16T06:52:17.186Z,101397.16
2022-12-16T06:55:02.941Z,101379.91
2022-12-16T06:57:48.686Z,101375.13
2022-12-16T07:00:34.977Z,101392.50
2022-12-16T07:03:20.334Z,101401.63
2022-12-16T07:06:06.243Z,101408.72
2022-12-16T07:08:53.406Z,101414.50
2022-12-16T07:11:50.487Z,101408.84
2022-12-16T07:14:36.210Z,101410.88
2022-12-16T07:17:21.757Z,101407.19
2022-12-16T07:20:07.175Z,101421.44
2022-12-16T07:23:04.113Z,101421.44
2022-12-16T07:25:57.517Z,101419.63
2022-12-16T07:28:43.160Z,101429.00
2022-12-16T07:31:28.989Z,101429.25
2022-12-16T07:34:15.342Z,101437.25
2022-12-16T07:37:00.916Z,101443.22
2022-12-16T07:39:55.638Z,101443.47
2022-12-16T07:42:43.123Z,101445.22
2022-12-16T07:45:29.709Z,101449.25
2022-12-16T07:48:24.186Z,101453.22
2022-12-16T07:51:09.948Z,101422.63
2022-12-16T07:53:56.001Z,101477.16
2022-12-16T07:56:42.224Z,101464.44
2022-12-16T07:59:29.518Z,101449.25
2022-12-16T08:02:15.107Z,101482.75
2022-12-16T08:05:00.747Z,101485.94
2022-12-16T08:07:46.208Z,101487.06
2022-12-16T08:10:31.984Z,101478.97
2022-12-16T08:13:25.525Z,101487.56
2022-12-16T08:16:13.470Z,101488.66
2022-12-16T08:18:59.203Z,101499.31
2022-12-16T08:21:44.945Z,101500.44
2022-12-16T08:24:30.641Z,101506.75
2022-12-16T08:27:16.097Z,101472.63
2022-12-16T08:30:02.029Z,101492.00
2022-12-16T08:32:50.579Z,101489.13
2022-12-16T08:35:39.322Z,101499.78
2022-12-16T08:38:24.830Z,101507.28
2022-12-16T08:41:14.012Z,101492.81
2022-12-16T08:43:59.465Z,101505.47
2022-12-16T08:46:45.430Z,101502.94
2022-12-16T08:49:32.670Z,101519.16
2022-12-16T08:52:18.537Z,101517.59
2022-12-16T08:55:04.302Z,101520.06
2022-12-16T08:57:50.145Z,101521.63
2022-12-16T09:00:36.052Z,101521.16
2022-12-16T09:03:22.253Z,101533.44
2022-12-16T09:06:09.667Z,101528.09
2022-12-16T09:08:57.988Z,101529.53
2022-12-16T09:11:43.418Z,101533.84
2022-12-16T09:14:29.591Z,101535.63
2022-12-16T09:17:15.191Z,101545.44
2022-12-16T09:20:01.138Z,101543.63
2022-12-16T09:22:44.516Z,101550.56
2022-12-16T09:25:30.064Z,101551.44
2022-12-16T09:28:15.808Z,101550.72
2022-12-16T09:31:01.532Z,101560.06
2022-12-16T09:33:47.073Z,101547.28
2022-12-16T09:36:33.245Z,101552.56
2022-12-16T09:39:20.619Z,101508.41
2022-12-16T09:42:21.065Z,101537.97
2022-12-16T09:45:17.901Z,101539.56
2022-12-16T09:48:11.103Z,101536.41
2022-12-16T09:51:00.409Z,101534.06
2022-12-16T09:53:51.189Z,101530.16
2022-12-16T09:56:44.053Z,101539.47
2022-12-16T09:59:32.157Z,101537.91
2022-12-16T10:02:18.830Z,101531.38
2022-12-16T10:05:10.432Z,101536.50
2022-12-16T10:08:03.812Z,101527.19
2022-12-16T10:10:59.611Z,101520.88
2022-12-16T10:13:56.110Z,101519.41
2022-12-16T10:16:51.086Z,101507.94
2022-12-16T10:19:52.203Z,101483.22
2022-12-16T10:22:46.521Z,101502.31
2022-12-16T10:25:37.474Z,101501.72
2022-12-16T10:28:34.251Z,101503.88
2022-12-16T10:31:24.584Z,101504.66
2022-12-16T10:34:12.685Z,101502.31
2022-12-16T10:37:02.822Z,101502.50
2022-12-16T10:39:55.503Z,101500.91
2022-12-16T10:42:47.068Z,101502.59
2022-12-16T10:45:39.991Z,101497.53
2022-12-16T10:48:29.363Z,101501.69
2022-12-16T10:51:18.063Z,101493.66
2022-12-16T10:54:05.760Z,101490.41
2022-12-16T10:57:08.373Z,101506.19
2022-12-16T10:59:56.077Z,101487.41
2022-12-16T11:02:44.219Z,101496.88
2022-12-16T11:05:50.072Z,101480.72
2022-12-16T11:08:47.269Z,101480.41
2022-12-16T11:11:40.367Z,101447.00
2022-12-16T11:14:38.943Z,101489.16
2022-12-16T11:17:45.335Z,101478.84
2022-12-16T11:20:37.946Z,101482.56
2022-12-16T11:23:52.035Z,101472.06
2022-12-16T11:26:38.672Z,101472.50
2022-12-16T11:29:29.720Z,101475.16
2022-12-16T11:32:33.441Z,101482.25
2022-12-16T11:35:22.345Z,101470.38
2022-12-16T11:38:11.520Z,101478.69
2022-12-16T11:40:59.176Z,101467.81
2022-12-16T11:43:56.617Z,101478.00
2022-12-16T11:46:46.169Z,101469.31
2022-12-16T11:49:39.819Z,101474.84
2022-12-16T11:52:37.868Z,101476.59
2022-12-16T11:58:53.785Z,101488.06
2022-12-16T12:01:46.792Z,101479.44
2022-12-16T12:04:33.108Z,101482.66
2022-12-16T12:07:44.519Z,101485.50
2022-12-16T12:10:49.772Z,101457.50
2022-12-16T12:13:52.480Z,101484.56
2022-12-16T12:16:47.135Z,101492.75
2022-12-16T12:19:43.874Z,101489.00
2022-12-16T12:22:47.635Z,101485.63
2022-12-16T12:25:42.316Z,101470.38
2022-12-16T12:28:39.571Z,101472.88
2022-12-16T12:31:33.948Z,101476.78
2022-12-16T12:34:31.825Z,101475.38
2022-12-16T12:37:26.439Z,101474.84
2022-12-16T12:40:20.779Z,101436.16
2022-12-16T12:43:11.980Z,101472.06
2022-12-16T12:46:10.506Z,101473.06
2022-12-16T12:49:02.648Z,101481.50
2022-12-16T12:52:01.483Z,101479.44
2022-12-16T12:54:55.464Z,101483.91
2022-12-16T12:57:56.620Z,101487.81
2022-12-16T13:00:45.949Z,101489.66
2022-12-16T13:03:35.282Z,101486.72
2022-12-16T13:06:22.430Z,101493.84
2022-12-16T13:09:16.747Z,101486.38
2022-12-16T13:12:43.973Z,101482.72
2022-12-16T13:15:38.098Z,101490.81
2022-12-16T13:18:43.568Z,101498.06
2022-12-16T13:22:04.372Z,101492.03
2022-12-16T13:25:04.232Z,101496.13
2022-12-16T13:28:08.388Z,101502.50
2022-12-16T13:30:54.507Z,101504.44
2022-12-16T13:33:48.003Z,101498.03
2022-12-16T13:36:35.869Z,101490.91
2022-12-16T13:39:41.739Z,101507.06
2022-12-16T13:43:06.439Z,101505.88
2022-12-16T13:45:55.488Z,101491.81
2022-12-16T13:48:53.746Z,101500.16
2022-12-16T13:52:24.530Z,101500.84
2022-12-16T13:55:34.892Z,101477.66
2022-12-16T13:58:35.855Z,101499.97
2022-12-16T14:01:29.263Z,101500.34
2022-12-16T14:04:17.425Z,101509.25
2022-12-16T14:07:03.952Z,101498.94
2022-12-16T14:09:53.968Z,101487.75
2022-12-16T14:13:02.575Z,101491.47
2022-12-16T14:15:58.874Z,101493.59
2022-12-16T14:18:56.771Z,101483.50
2022-12-16T14:21:50.495Z,101479.56
2022-12-16T14:24:51.126Z,101500.91
2022-12-16T14:27:39.211Z,101501.09
2022-12-16T14:30:37.429Z,101502.50
2022-12-16T14:33:44.160Z,101497.53
2022-12-16T14:36:39.181Z,101496.28
2022-12-16T14:39:29.712Z,101513.72
2022-12-16T14:42:15.702Z,101511.59
2022-12-16T14:45:04.534Z,101505.00
2022-12-16T14:47:51.315Z,101508.56
2022-12-16T14:50:45.145Z,101497.69
2022-12-16T14:53:37.128Z,101493.91
2022-12-16T14:56:34.924Z,101494.69
2022-12-16T14:59:28.523Z,101508.72
2022-12-16T15:02:17.685Z,101510.72
2022-12-16T15:05:04.157Z,101503.97
2022-12-16T15:07:56.181Z,101522.44
2022-12-16T15:10:45.127Z,101513.72
2022-12-16T15:13:36.648Z,101518.50
2022-12-16T15:16:24.942Z,101518.03
2022-12-16T15:19:17.859Z,101513.81
2022-12-16T15:22:03.811Z,101517.91
2022-12-16T15:25:05.160Z,101524.34
2022-12-16T15:27:54.426Z,101537.53
2022-12-16T15:30:56.861Z,101528.38
2022-12-16T15:33:44.482Z,101525.94
2022-12-16T15:36:43.908Z,101534.09
2022-12-16T15:39:35.954Z,101499.78
2022-12-16T15:42:23.456Z,101503.81
2022-12-16T15:45:10.485Z,101502.94
2022-12-16T15:47:57.192Z,101501.25
2022-12-16T15:50:45.794Z,101511.16
2022-12-16T15:53:49.727Z,101442.97
2022-12-16T15:56:40.087Z,101502.25
2022-12-16T15:59:44.151Z,101471.22
2022-12-16T16:02:37.677Z,101498.41
2022-12-16T16:05:30.195Z,101521.28
2022-12-16T16:08:16.023Z,101490.19
2022-12-16T16:11:02.574Z,101486.66
2022-12-16T16:13:49.717Z,101499.25
2022-12-16T16:16:37.307Z,101497.69
2022-12-16T16:19:27.633Z,101490.75
2022-12-16T16:22:13.496Z,101495.91
2022-12-16T16:24:59.706Z,101495.91
2022-12-16T16:27:46.474Z,101506.41
2022-12-16T16:30:32.492Z,101494.50
2022-12-16T16:33:19.639Z,101501.44
2022-12-16T16:36:05.618Z,101508.56
2022-12-16T16:38:51.110Z,101500.91
2022-12-16T16:41:39.181Z,101509.13
2022-12-16T16:44:24.573Z,101503.97
2022-12-16T16:47:10.529Z,101510.72
2022-12-16T16:50:03.164Z,101513.69
2022-12-16T16:52:50.650Z,101513.91
2022-12-16T16:55:38.873Z,101518.84
2022-12-16T16:58:28.071Z,101517.88
2022-12-16T17:01:28.575Z,101517.75
2022-12-16T17:04:14.996Z,101522.19
2022-12-16T17:07:01.874Z,101530.75
2022-12-16T17:09:47.597Z,101516.28
2022-12-16T17:12:38.760Z,101522.91
2022-12-16T17:15:34.191Z,101522.19
2022-12-16T17:18:20.686Z,101519.94
2022-12-16T17:21:08.646Z,101520.66
2022-12-16T17:23:55.753Z,101521.34
2022-12-16T17:26:41.939Z,101518.66
2022-12-16T17:29:37.011Z,101507.72
2022-12-16T17:32:22.944Z,101506.75
2022-12-16T17:35:08.344Z,101500.06
2022-12-16T17:37:54.343Z,101509.31
2022-12-16T17:40:41.534Z,101509.22
2022-12-16T17:43:27.873Z,101485.69
2022-12-16T17:46:18.209Z,101495.66
2022-12-16T17:49:04.366Z,101492.13
2022-12-16T17:51:50.058Z,101501.00
2022-12-16T17:54:36.954Z,101495.03
2022-12-16T17:57:24.024Z,101501.56
2022-12-16T18:00:09.879Z,101488.41
2022-12-16T18:02:56.058Z,101499.06
2022-12-16T18:05:44.709Z,101486.31
2022-12-16T18:08:30.784Z,101488.25
2022-12-16T18:11:17.315Z,101502.72
2022-12-16T18:14:05.039Z,101491.63
2022-12-16T18:16:51.052Z,101498.47
2022-12-16T18:19:36.759Z,101501.31
2022-12-16T18:22:31.392Z,101500.69
2022-12-16T18:25:16.941Z,101481.31
2022-12-16T18:28:02.703Z,101483.66
2022-12-16T18:31:04.950Z,101483.84
2022-12-16T18:33:51.559Z,101484.03
2022-12-16T18:36:37.427Z,101476.66
2022-12-16T18:39:24.246Z,101474.28
2022-12-16T18:42:10.463Z,101469.94
2022-12-16T18:45:07.673Z,101468.94
2022-12-16T18:47:54.650Z,101467.53
2022-12-16T18:50:40.248Z,101462.56
2022-12-16T18:53:26.452Z,101460.09
2022-12-16T18:56:19.357Z,101430.75
2022-12-16T18:59:04.944Z,101459.38
2022-12-16T19:01:50.678Z,101462.75
2022-12-16T19:04:38.255Z,101462.56
2022-12-16T19:07:23.950Z,101450.50
2022-12-16T19:10:10.034Z,101454.38
2022-12-16T19:12:56.237Z,101471.81
2022-12-16T19:15:41.898Z,101458.50
2022-12-16T19:18:27.813Z,101459.72
2022-12-16T19:21:15.877Z,101461.00
2022-12-16T19:24:02.047Z,101452.81
2022-12-16T19:26:47.837Z,101458.16
2022-12-16T19:29:33.631Z,101447.72
2022-12-16T19:32:19.269Z,101422.78
2022-12-16T19:35:06.212Z,101443.53
2022-12-16T19:37:53.754Z,101439.53
2022-12-16T19:40:39.768Z,101435.38
2022-12-16T19:43:25.947Z,101434.66
2022-12-16T19:46:12.180Z,101419.34
2022-12-16T19:48:58.202Z,101433.94
2022-12-16T19:51:44.667Z,101424.13
2022-12-16T19:54:31.622Z,101431.22
2022-12-16T19:57:17.154Z,101438.66
2022-12-16T20:00:12.695Z,101433.03
2022-12-16T20:02:58.489Z,101432.25
2022-12-16T20:05:45.007Z,101430.63
2022-12-16T20:08:32.070Z,101428.16
2022-12-16T20:11:23.777Z,101413.22
2022-12-16T20:14:11.839Z,101427.25
2022-12-16T20:16:58.095Z,101439.19
2022-12-16T20:19:44.155Z,101428.50
2022-12-16T20:22:30.149Z,101432.59
2022-12-16T20:25:16.978Z,101426.78
2022-12-16T20:28:04.215Z,101431.38
2022-12-16T20:30:50.357Z,101420.97
2022-12-16T20:33:35.897Z,101440.34
2022-12-16T20:36:23.683Z,101427.97
2022-12-16T20:39:10.062Z,101433.91
2022-12-16T20:42:00.164Z,101434.69
2022-12-16T20:44:52.717Z,101432.63
2022-12-16T20:47:43.976Z,101439.25
2022-12-16T20:50:30.442Z,101444.72
2022-12-16T20:53:16.843Z,101441.50
2022-12-16T20:56:08.771Z,101420.16
2022-12-16T20:58:56.196Z,101428.91
2022-12-16T21:02:21.810Z,101451.50
2022-12-16T21:05:05.943Z,101449.88
2022-12-16T21:07:51.874Z,101456.81
2022-12-16T21:10:43.058Z,101474.00
2022-12-16T21:13:30.743Z,101467.16
2022-12-16T21:16:17.401Z,101468.59
2022-12-16T21:19:04.192Z,101480.84
2022-12-16T21:21:50.123Z,101473.94
2022-12-16T21:24:35.607Z,101473.75
2022-12-16T21:27:21.491Z,101472.69
2022-12-16T21:30:07.501Z,101471.66
2022-12-16T21:32:53.374Z,101488.09
2022-12-16T21:39:01.150Z,101493.88
2022-12-16T21:41:46.813Z,101507.63
2022-12-16T21:44:32.244Z,101507.97
2022-12-16T21:47:17.966Z,101519.19
2022-12-16T21:50:03.554Z,101538.09
2022-12-16T21:52:50.883Z,101523.56
2022-12-16T21:55:39.162Z,101529.22
2022-12-16T21:58:29.224Z,101525.19
2022-12-16T22:01:15.515Z,101531.84
2022-12-16T22:04:01.312Z,101521.34
2022-12-16T22:06:49.117Z,101532.56
2022-12-16T22:09:36.545Z,101525.63
2022-12-16T22:12:22.920Z,101529.03
2022-12-16T22:15:08.927Z,101514.25
2022-12-16T22:17:58.643Z,101525.63
2022-12-16T22:20:44.944Z,101525.47
2022-12-16T22:23:30.527Z,101524.03
2022-12-16T22:26:24.217Z,101541.47
2022-12-16T22:29:11.308Z,101524.34
2022-12-16T22:31:57.049Z,101515.81
2022-12-16T22:34:42.700Z,101515.97
2022-12-16T22:37:24.673Z,101518.47
2022-12-16T22:40:10.385Z,101502.09
2022-12-16T22:42:57.512Z,101500.16
2022-12-16T22:45:58.023Z,101479.69
2022-12-16T22:48:44.296Z,101467.75
2022-12-16T22:51:30.308Z,101469.69
2022-12-16T22:54:16.546Z,101471.31
2022-12-16T22:56:58.708Z,101466.31
2022-12-16T22:59:46.119Z,101475.03
2022-12-16T23:02:31.731Z,101471.78
2022-12-16T23:05:19.165Z,101474.53
2022-12-16T23:08:08.553Z,101464.69
2022-12-16T23:10:55.504Z,101451.94
2022-12-16T23:13:52.532Z,101454.03
2022-12-16T23:16:40.743Z,101445.44
2022-12-16T23:19:26.415Z,101450.50
2022-12-16T23:22:11.826Z,101457.25
2022-12-16T23:24:57.509Z,101438.72
2022-12-16T23:27:42.798Z,101441.94
2022-12-16T23:30:29.856Z,101435.00
2022-12-16T23:33:18.058Z,101431.63
2022-12-16T23:36:03.685Z,101412.59
2022-12-16T23:38:49.539Z,101424.78
2022-12-16T23:41:31.731Z,101427.59
2022-12-16T23:44:17.947Z,101434.06
2022-12-16T23:47:03.720Z,101424.59
2022-12-16T23:49:51.995Z,101436.78
2022-12-16T23:52:37.470Z,101444.84
2022-12-16T23:55:29.114Z,101429.00
2022-12-16T23:58:17.911Z,101445.78
